Time;durP1;ratioP1;P1;durP2;ratioP2;P2;SDS_P1;SDS_P2;PMS_P1;PMS_P2;Temp;Humidity;BMP_temperature;BMP_pressure;BME280_temperature;BME280_humidity;BME280_pressure;Samples;Min_cycle;Max_cycle;Signal;HPM_P1;HPM_P2
2023/03/27 00:01:57;;;;;;;3.40;0.95;;;14.00;64.50;;;;;;4126708;28;20580;-68
2023/03/27 00:04:40;;;;;;;5.68;1.70;;;14.00;64.70;;;;;;4137379;28;20504;-68
2023/03/27 00:07:21;;;;;;;9.38;1.40;;;14.00;64.70;;;;;;4143078;28;20069;-67
2023/03/27 00:10:02;;;;;;;3.67;0.90;;;14.00;64.70;;;;;;4141723;28;20053;-67
2023/03/27 00:12:44;;;;;;;6.73;1.27;;;14.00;64.70;;;;;;4143037;28;20387;-67
2023/03/27 00:15:24;;;;;;;4.97;1.60;;;14.00;64.60;;;;;;4127693;28;20108;-67
2023/03/27 00:18:05;;;;;;;6.35;1.05;;;14.00;64.70;;;;;;4126560;28;20457;-67
2023/03/27 00:20:48;;;;;;;4.68;1.25;;;14.00;64.50;;;;;;4133417;28;20127;-67
2023/03/27 00:23:29;;;;;;;1.88;0.70;;;14.00;64.20;;;;;;4154314;28;20384;-67
2023/03/27 00:26:11;;;;;;;4.55;1.00;;;13.90;64.30;;;;;;4132961;28;20404;-67
2023/03/27 00:28:53;;;;;;;3.05;0.85;;;14.00;64.70;;;;;;4129354;28;20065;-67
2023/03/27 00:31:35;;;;;;;3.30;1.17;;;13.90;64.80;;;;;;4126616;28;20042;-66
2023/03/27 00:34:16;;;;;;;2.83;1.05;;;13.90;65.10;;;;;;4134282;28;20048;-66
2023/03/27 00:36:58;;;;;;;6.47;0.85;;;13.90;65.10;;;;;;4142581;28;20053;-67
2023/03/27 00:39:41;;;;;;;3.90;0.85;;;13.90;65.30;;;;;;4110337;28;20058;-66
2023/03/27 00:42:23;;;;;;;2.90;1.23;;;13.90;65.50;;;;;;4135431;28;20056;-67
2023/03/27 00:45:05;;;;;;;5.25;1.52;;;13.90;65.50;;;;;;4141548;28;20711;-66
2023/03/27 00:47:48;;;;;;;3.20;0.68;;;13.90;65.70;;;;;;4143792;28;20060;-67
2023/03/27 00:50:35;;;;;;;4.15;1.42;;;13.90;65.80;;;;;;4144890;28;20053;-67
2023/03/27 00:53:20;;;;;;;4.13;1.13;;;13.90;65.90;;;;;;4131343;28;20053;-66
2023/03/27 00:56:05;;;;;;;5.60;1.42;;;13.90;65.90;;;;;;4129748;28;20683;-66
2023/03/27 00:58:48;;;;;;;2.22;1.17;;;13.80;66.00;;;;;;4112435;28;20062;-66
2023/03/27 01:01:30;;;;;;;4.30;1.10;;;13.80;66.10;;;;;;4112300;28;20053;-66
2023/03/27 01:04:12;;;;;;;5.88;1.00;;;13.80;66.20;;;;;;4128257;28;20173;-66
2023/03/27 01:06:55;;;;;;;2.55;0.80;;;13.90;66.60;;;;;;4113782;28;20065;-66
2023/03/27 01:09:38;;;;;;;5.68;1.00;;;13.80;66.60;;;;;;4113684;28;20046;-66
2023/03/27 01:12:30;;;;;;;13.30;1.40;;;13.90;66.80;;;;;;4117370;28;20053;-66
2023/03/27 01:15:25;;;;;;;6.78;1.15;;;13.80;66.80;;;;;;4133880;28;20053;-67
2023/03/27 01:18:27;;;;;;;7.15;1.02;;;13.80;66.90;;;;;;4122840;28;20066;-67
2023/03/27 01:22:05;;;;;;;7.65;1.23;;;13.80;66.80;;;;;;4122588;28;20394;-67
2023/03/27 01:25:06;;;;;;;6.20;1.42;;;13.80;66.70;;;;;;4081880;28;20182;-69
2023/03/27 01:28:01;;;;;;;;;;;13.80;67.40;;;;;;4088807;28;20054;-69
2023/03/27 01:30:50;;;;;;;3.58;0.80;;;13.80;68.30;;;;;;4127670;28;19948;-70
2023/03/27 01:33:57;;;;;;;3.83;0.88;;;13.80;68.70;;;;;;4142811;28;20053;-70
2023/03/27 01:37:07;;;;;;;6.85;1.00;;;13.90;68.10;;;;;;4143585;28;20381;-67
2023/03/27 01:39:56;;;;;;;4.00;1.05;;;13.90;67.70;;;;;;4144030;28;20119;-69
2023/03/27 01:42:45;;;;;;;6.22;0.98;;;13.90;67.90;;;;;;4135011;28;20378;-67
2023/03/27 01:45:33;;;;;;;4.45;0.90;;;14.00;68.10;;;;;;4131592;28;20058;-67
2023/03/27 01:48:21;;;;;;;7.20;1.45;;;14.00;68.20;;;;;;4136915;28;20057;-67
2023/03/27 01:51:08;;;;;;;4.28;1.20;;;14.10;67.80;;;;;;4129208;28;20505;-67
2023/03/27 01:53:53;;;;;;;6.20;1.30;;;14.20;67.80;;;;;;4111465;28;20132;-67
2023/03/27 01:56:40;;;;;;;3.55;1.10;;;14.30;67.50;;;;;;4114051;28;20450;-67
2023/03/27 01:59:25;;;;;;;3.63;1.10;;;14.30;67.00;;;;;;4111777;28;20065;-66
2023/03/27 02:02:11;;;;;;;5.10;0.77;;;14.40;66.80;;;;;;4135293;28;20511;-66
2023/03/27 02:04:58;;;;;;;5.20;1.02;;;14.50;67.00;;;;;;4144872;28;20057;-66
2023/03/27 02:07:44;;;;;;;3.13;1.00;;;14.60;67.30;;;;;;4143773;28;20135;-66
2023/03/27 02:10:31;;;;;;;3.72;1.13;;;14.60;66.90;;;;;;4143536;28;20048;-66
2023/03/27 02:13:27;;;;;;;4.97;1.27;;;14.70;66.40;;;;;;4126728;28;20413;-67
2023/03/27 02:16:10;;;;;;;3.17;1.17;;;14.70;65.90;;;;;;4133118;28;20109;-66
2023/03/27 02:18:55;;;;;;;4.18;0.80;;;14.80;65.70;;;;;;4154926;28;20056;-66
2023/03/27 02:21:36;;;;;;;2.35;1.00;;;14.80;65.00;;;;;;4140306;28;20058;-66
2023/03/27 02:24:17;;;;;;;;;;;14.70;64.00;;;;;;4129291;28;20656;-66
2023/03/27 02:27:04;;;;;;;3.85;1.10;;;14.70;63.80;;;;;;4128888;28;20297;-66
2023/03/27 02:29:56;;;;;;;2.58;0.90;;;14.80;65.60;;;;;;4133860;28;20139;-66
2023/03/27 02:32:48;;;;;;;3.70;1.08;;;14.70;63.70;;;;;;4126864;28;20188;-67
2023/03/27 02:35:40;;;;;;;4.55;0.98;;;14.80;62.80;;;;;;4146607;28;20451;-66
2023/03/27 02:38:28;;;;;;;2.08;0.85;;;14.80;64.90;;;;;;4142474;28;20149;-68
2023/03/27 02:41:18;;;;;;;2.33;1.05;;;14.80;65.30;;;;;;4112116;28;20402;-67
2023/03/27 02:44:08;;;;;;;2.85;0.82;;;14.80;65.40;;;;;;4111640;28;20058;-66
2023/03/27 02:47:06;;;;;;;1.60;1.15;;;14.80;65.40;;;;;;4127010;28;20065;-69
2023/03/27 02:49:51;;;;;;;3.33;0.82;;;14.80;64.90;;;;;;4127429;28;20062;-69
2023/03/27 02:52:36;;;;;;;4.57;0.98;;;14.80;64.80;;;;;;4159139;28;20134;-69
2023/03/27 02:55:21;;;;;;;1.73;0.70;;;14.80;65.10;;;;;;4170650;28;20083;-69
2023/03/27 02:58:06;;;;;;;2.55;1.08;;;14.80;65.10;;;;;;4144284;28;20057;-69
2023/03/27 03:00:51;;;;;;;5.38;1.02;;;14.90;65.10;;;;;;4131274;28;20065;-69
2023/03/27 03:03:54;;;;;;;3.08;0.90;;;14.90;65.00;;;;;;4131597;28;20057;-69
2023/03/27 03:06:46;;;;;;;3.17;0.98;;;14.90;64.90;;;;;;4133499;28;20052;-69
2023/03/27 03:09:31;;;;;;;5.90;1.02;;;14.90;65.20;;;;;;4137669;28;20048;-69
2023/03/27 03:12:12;;;;;;;3.00;1.10;;;14.90;65.00;;;;;;4134626;28;20056;-69
2023/03/27 03:14:55;;;;;;;3.60;1.20;;;14.90;65.20;;;;;;4134608;28;20053;-69
2023/03/27 03:17:36;;;;;;;2.45;1.00;;;15.00;65.40;;;;;;4132515;28;20061;-70
2023/03/27 03:20:18;;;;;;;2.33;1.05;;;15.00;65.20;;;;;;4127315;28;20061;-71
2023/03/27 03:23:01;;;;;;;7.80;1.52;;;15.00;65.20;;;;;;4126478;28;20405;-70
2023/03/27 03:25:43;;;;;;;4.03;1.30;;;15.00;65.10;;;;;;4137923;28;20080;-70
2023/03/27 03:28:25;;;;;;;2.42;1.00;;;15.10;65.30;;;;;;4137674;28;20072;-69
2023/03/27 03:31:09;;;;;;;5.07;1.58;;;15.10;65.30;;;;;;4143388;28;20188;-69
2023/03/27 03:33:51;;;;;;;4.70;1.15;;;15.10;65.20;;;;;;4140497;28;20069;-69
2023/03/27 03:36:33;;;;;;;6.75;1.63;;;15.20;64.60;;;;;;4142226;28;20045;-67
2023/03/27 03:39:14;;;;;;;3.38;0.90;;;15.20;64.70;;;;;;4127080;28;20398;-66
2023/03/27 03:41:58;;;;;;;3.35;1.05;;;15.20;64.90;;;;;;4138984;28;20052;-66
2023/03/27 03:44:39;;;;;;;6.65;1.15;;;15.20;65.00;;;;;;4144481;28;20049;-66
2023/03/27 03:47:31;;;;;;;5.30;1.35;;;15.20;64.90;;;;;;4139698;28;20061;-68
2023/03/27 03:50:14;;;;;;;2.72;1.33;;;15.20;65.00;;;;;;4140407;28;20065;-67
2023/03/27 03:52:56;;;;;;;4.47;1.80;;;15.10;65.00;;;;;;4129401;28;20568;-66
2023/03/27 03:55:37;;;;;;;6.35;1.20;;;15.10;65.20;;;;;;4140850;28;20056;-66
2023/03/27 03:58:18;;;;;;;3.38;1.05;;;15.00;65.50;;;;;;4133508;28;20060;-66
2023/03/27 04:01:01;;;;;;;2.53;1.20;;;15.00;65.40;;;;;;4145452;28;20133;-66
2023/03/27 04:03:51;;;;;;;4.18;1.15;;;15.00;64.30;;;;;;4156544;28;20064;-67
2023/03/27 04:06:36;;;;;;;5.10;1.65;;;15.00;61.40;;;;;;4145003;28;20629;-66
2023/03/27 04:09:19;;;;;;;5.07;1.63;;;15.00;63.70;;;;;;4145451;28;20064;-66
2023/03/27 04:12:10;;;;;;;4.72;1.92;;;14.90;64.70;;;;;;4145216;28;20071;-66
2023/03/27 04:15:01;;;;;;;4.63;1.63;;;15.00;65.50;;;;;;4146309;28;20107;-66
2023/03/27 04:18:20;;;;;;;2.47;1.00;;;15.00;65.60;;;;;;4139959;28;20132;-66
2023/03/27 04:21:01;;;;;;;;;;;15.10;66.10;;;;;;4141157;28;20068;-65
2023/03/27 04:23:44;;;;;;;5.60;1.23;;;15.10;66.00;;;;;;4129294;28;19929;-65
2023/03/27 04:26:28;;;;;;;3.58;1.30;;;15.10;66.40;;;;;;4140579;28;20061;-66
2023/03/27 04:29:29;;;;;;;3.10;1.77;;;15.10;66.10;;;;;;4125078;28;20053;-66
2023/03/27 04:32:12;;;;;;;4.07;1.50;;;15.10;66.10;;;;;;4155559;28;20412;-65
2023/03/27 04:34:54;;;;;;;6.60;1.80;;;15.20;66.10;;;;;;4121250;28;20049;-65
2023/03/27 04:37:52;;;;;;;6.70;1.85;;;15.10;65.90;;;;;;4125146;28;20061;-66
2023/03/27 04:41:05;;;;;;;8.10;1.83;;;15.20;65.90;;;;;;4126287;28;20085;-66
2023/03/27 04:43:48;;;;;;;5.75;1.30;;;15.20;66.10;;;;;;4125479;28;20077;-68
2023/03/27 04:46:30;;;;;;;4.22;1.67;;;15.20;65.80;;;;;;4124531;28;20515;-69
2023/03/27 04:49:19;;;;;;;4.35;1.20;;;15.20;65.80;;;;;;4129569;28;20169;-69
2023/03/27 04:52:08;;;;;;;6.93;1.63;;;15.20;66.80;;;;;;4145632;28;20504;-70
2023/03/27 04:54:49;;;;;;;4.40;1.40;;;15.20;65.80;;;;;;4157289;28;20048;-70
2023/03/27 04:57:31;;;;;;;6.63;1.15;;;15.20;65.80;;;;;;4126541;28;20124;-66
2023/03/27 05:00:17;;;;;;;3.33;1.30;;;15.20;65.70;;;;;;4126251;28;20501;-66
2023/03/27 05:02:59;;;;;;;3.90;0.70;;;15.30;65.50;;;;;;4152351;28;20061;-65
2023/03/27 05:05:57;;;;;;;3.58;0.85;;;15.30;65.40;;;;;;4152551;28;20156;-66
2023/03/27 05:08:38;;;;;;;3.17;0.45;;;15.20;65.40;;;;;;4125381;28;20061;-66
2023/03/27 05:11:19;;;;;;;2.45;0.90;;;15.20;65.40;;;;;;4148053;28;20057;-66
2023/03/27 05:14:00;;;;;;;3.67;0.70;;;15.20;64.60;;;;;;4158621;28;20067;-66
2023/03/27 05:16:47;;;;;;;0.88;0.57;;;15.20;64.80;;;;;;4146042;28;20099;-66
2023/03/27 05:19:29;;;;;;;2.38;0.55;;;15.20;64.20;;;;;;4141259;28;20048;-66
2023/03/27 05:22:13;;;;;;;4.20;0.88;;;15.20;64.30;;;;;;4141399;28;20053;-66
2023/03/27 05:25:04;;;;;;;2.35;0.77;;;15.20;64.70;;;;;;4141279;28;20101;-66
2023/03/27 05:27:45;;;;;;;4.72;0.80;;;15.20;65.00;;;;;;4125018;28;20057;-66
2023/03/27 05:30:28;;;;;;;1.58;0.45;;;15.20;65.30;;;;;;4131660;28;20044;-66
2023/03/27 05:33:31;;;;;;;1.23;0.57;;;15.20;66.50;;;;;;4125861;28;20046;-67
2023/03/27 05:36:14;;;;;;;1.52;0.50;;;15.20;65.80;;;;;;4144236;28;20057;-68
2023/03/27 05:38:56;;;;;;;1.95;0.50;;;15.20;65.80;;;;;;4142288;28;20049;-67
2023/03/27 05:41:52;;;;;;;2.42;0.75;;;15.20;65.40;;;;;;4143721;28;20092;-66
2023/03/27 05:44:35;;;;;;;2.50;0.63;;;15.20;65.50;;;;;;4145224;28;20072;-66
2023/03/27 05:47:16;;;;;;;3.80;0.95;;;15.20;65.50;;;;;;4143242;28;20404;-64
2023/03/27 05:49:58;;;;;;;4.88;0.80;;;15.20;65.30;;;;;;4142336;28;20061;-69
2023/03/27 05:52:40;;;;;;;3.58;0.75;;;15.20;65.90;;;;;;4132691;28;20045;-63
2023/03/27 05:55:21;;;;;;;3.90;0.75;;;15.30;67.40;;;;;;4130389;28;20085;-64
2023/03/27 05:58:02;;;;;;;4.68;0.68;;;15.30;66.30;;;;;;4142360;28;20057;-64
2023/03/27 06:00:45;;;;;;;2.55;0.80;;;15.30;66.20;;;;;;4128783;28;20127;-64
2023/03/27 06:03:35;;;;;;;2.95;0.70;;;15.30;66.20;;;;;;4129644;28;20406;-63
2023/03/27 06:06:18;;;;;;;2.10;0.63;;;15.30;66.30;;;;;;4143880;28;20172;-64
2023/03/27 06:09:00;;;;;;;4.57;0.93;;;15.30;66.20;;;;;;4137423;28;20448;-64
2023/03/27 06:11:43;;;;;;;1.92;0.40;;;15.30;66.40;;;;;;4133388;28;20140;-64
2023/03/27 06:14:24;;;;;;;6.00;0.60;;;15.30;66.30;;;;;;4143473;28;20064;-63
2023/03/27 06:17:27;;;;;;;3.53;0.80;;;15.30;66.40;;;;;;4138745;28;20068;-64
2023/03/27 06:20:14;;;;;;;2.15;0.80;;;15.20;66.50;;;;;;4131792;28;20049;-64
2023/03/27 06:23:05;;;;;;;3.20;0.73;;;15.20;66.70;;;;;;4136701;28;20383;-64
2023/03/27 06:25:48;;;;;;;4.07;1.08;;;15.20;66.90;;;;;;4115746;28;20720;-64
2023/03/27 06:28:29;;;;;;;3.60;1.00;;;15.20;68.00;;;;;;4127031;28;20112;-64
2023/03/27 06:31:10;;;;;;;3.70;1.08;;;15.10;67.10;;;;;;4128183;28;20093;-64
2023/03/27 06:34:09;;;;;;;3.58;0.73;;;15.10;67.00;;;;;;4135328;28;20405;-64
2023/03/27 06:37:02;;;;;;;4.00;0.70;;;15.10;67.00;;;;;;4143246;28;20056;-64
2023/03/27 06:39:51;;;;;;;3.58;0.88;;;15.10;66.50;;;;;;4141062;28;20500;-62
2023/03/27 06:42:33;;;;;;;6.00;0.82;;;15.20;66.50;;;;;;4147422;28;20057;-62
2023/03/27 06:45:36;;;;;;;3.60;0.90;;;15.30;66.10;;;;;;4141803;28;20060;-62
2023/03/27 06:48:46;;;;;;;3.17;1.02;;;15.30;65.90;;;;;;4149660;28;20107;-62
2023/03/27 06:51:27;;;;;;;;;;;15.40;65.80;;;;;;4148569;28;20177;-62
2023/03/27 06:54:08;;;;;;;5.30;1.00;;;15.40;65.90;;;;;;4143432;28;19932;-62
2023/03/27 06:56:59;;;;;;;5.10;0.82;;;15.40;66.20;;;;;;4153469;28;20094;-63
2023/03/27 06:59:45;;;;;;;3.05;1.10;;;15.30;65.80;;;;;;4141796;28;20060;-62
2023/03/27 07:02:30;;;;;;;5.28;0.70;;;15.30;65.70;;;;;;4133135;28;20406;-62
2023/03/27 07:05:49;;;;;;;2.75;0.95;;;15.30;65.70;;;;;;4135455;28;20072;-63
2023/03/27 07:08:30;;;;;;;9.07;1.60;;;15.30;65.60;;;;;;4141868;28;20177;-63
2023/03/27 07:11:12;;;;;;;;;;;15.30;64.80;;;;;;4124844;28;20061;-63
2023/03/27 07:14:00;;;;;;;5.85;1.40;;;15.30;64.70;;;;;;4140168;28;19972;-61
2023/03/27 07:16:43;;;;;;;7.50;1.90;;;15.30;64.90;;;;;;4154523;28;20099;-62
2023/03/27 07:19:26;;;;;;;3.20;1.23;;;15.40;64.20;;;;;;4145067;28;20056;-62
2023/03/27 07:22:16;;;;;;;3.97;1.10;;;15.30;63.70;;;;;;4124816;28;20081;-63
2023/03/27 07:24:58;;;;;;;3.85;1.17;;;15.30;60.70;;;;;;4124370;28;20053;-61
2023/03/27 07:27:41;;;;;;;5.60;0.80;;;15.30;60.70;;;;;;4149514;28;20562;-61
2023/03/27 07:30:23;;;;;;;;;;;15.30;63.10;;;;;;4143358;28;20184;-61
2023/03/27 07:33:06;;;;;;;2.63;0.90;;;15.40;63.30;;;;;;4146197;28;20035;-61
2023/03/27 07:35:48;;;;;;;2.90;0.82;;;15.50;63.40;;;;;;4148674;28;20037;-61
2023/03/27 07:38:48;;;;;;;5.13;0.80;;;15.50;61.70;;;;;;4152877;28;20072;-63
2023/03/27 07:41:34;;;;;;;3.97;1.20;;;15.50;59.60;;;;;;4116551;28;20057;-62
2023/03/27 07:44:29;;;;;;;3.05;1.23;;;15.60;61.30;;;;;;4125639;28;20061;-62
2023/03/27 07:47:19;;;;;;;2.92;1.15;;;15.50;61.30;;;;;;4123395;28;20057;-61
2023/03/27 07:50:00;;;;;;;5.30;0.93;;;15.50;61.70;;;;;;4129728;28;20054;-63
2023/03/27 07:52:42;;;;;;;3.57;1.13;;;15.50;61.00;;;;;;4125272;28;20053;-63
2023/03/27 07:55:23;;;;;;;3.72;1.10;;;15.50;60.80;;;;;;4121922;28;20056;-62
2023/03/27 07:58:13;;;;;;;6.65;1.35;;;15.50;60.30;;;;;;4138304;28;20481;-63
2023/03/27 08:01:00;;;;;;;1.73;1.00;;;15.40;61.10;;;;;;4146439;28;20060;-62
2023/03/27 08:03:45;;;;;;;2.85;1.25;;;15.30;61.60;;;;;;4141253;28;20057;-62
2023/03/27 08:06:28;;;;;;;4.28;1.08;;;15.30;62.50;;;;;;4145966;28;20068;-63
2023/03/27 08:09:10;;;;;;;2.35;0.65;;;15.30;62.60;;;;;;4144916;28;20144;-62
2023/03/27 08:11:51;;;;;;;2.22;0.80;;;15.30;61.90;;;;;;4143625;28;20500;-60
2023/03/27 08:14:32;;;;;;;2.40;0.80;;;15.30;61.90;;;;;;4109142;28;20446;-62
2023/03/27 08:17:22;;;;;;;2.67;0.60;;;15.30;61.80;;;;;;4122463;28;20073;-62
2023/03/27 08:20:07;;;;;;;3.03;1.05;;;15.30;59.90;;;;;;4122631;28;20053;-61
2023/03/27 08:22:57;;;;;;;1.05;0.60;;;15.20;59.90;;;;;;4138144;28;20200;-61
2023/03/27 08:25:44;;;;;;;3.28;0.90;;;15.20;60.20;;;;;;4130918;28;20065;-62
2023/03/27 08:28:26;;;;;;;4.90;0.90;;;15.20;59.60;;;;;;4122470;28;20057;-62
2023/03/27 08:31:11;;;;;;;1.80;0.90;;;15.10;59.50;;;;;;4140980;28;20053;-62
2023/03/27 08:33:53;;;;;;;8.00;1.08;;;15.10;59.30;;;;;;4146165;28;20090;-61
2023/03/27 08:36:41;;;;;;;3.70;1.10;;;15.10;61.10;;;;;;4152228;28;20396;-60
2023/03/27 08:39:22;;;;;;;2.45;1.08;;;15.00;59.80;;;;;;4143748;28;20167;-60
2023/03/27 08:42:18;;;;;;;2.63;0.98;;;15.00;58.90;;;;;;4146002;28;20048;-62
2023/03/27 08:45:10;;;;;;;3.95;0.77;;;15.00;58.10;;;;;;4146205;28;20204;-63
2023/03/27 08:48:04;;;;;;;2.08;0.63;;;14.90;59.20;;;;;;4144753;28;20076;-62
2023/03/27 08:50:48;;;;;;;3.25;1.15;;;14.90;58.80;;;;;;4150190;28;20180;-62
2023/03/27 08:53:40;;;;;;;3.33;1.00;;;14.90;59.90;;;;;;4144260;28;20056;-63
2023/03/27 08:56:24;;;;;;;5.82;2.05;;;14.90;60.30;;;;;;4147015;28;20069;-62
2023/03/27 08:59:12;;;;;;;4.85;1.30;;;14.90;60.60;;;;;;4140638;28;20516;-63
2023/03/27 09:02:04;;;;;;;2.15;1.13;;;14.90;58.00;;;;;;4154322;28;20064;-62
2023/03/27 09:04:52;;;;;;;4.20;1.03;;;14.80;60.60;;;;;;4124471;28;20128;-63
2023/03/27 09:07:41;;;;;;;4.18;1.10;;;14.70;59.60;;;;;;4138200;28;20169;-63
2023/03/27 09:10:43;;;;;;;1.63;1.00;;;14.60;60.00;;;;;;4142152;28;20097;-63
2023/03/27 09:13:42;;;;;;;2.38;0.55;;;14.60;59.60;;;;;;4148481;28;20134;-63
2023/03/27 09:16:27;;;;;;;4.35;1.20;;;14.60;60.00;;;;;;4147534;28;20057;-61
2023/03/27 09:19:18;;;;;;;2.85;0.63;;;14.60;59.00;;;;;;4148990;28;20174;-62
2023/03/27 09:22:04;;;;;;;2.17;0.65;;;14.60;58.70;;;;;;4151334;28;20053;-62
2023/03/27 09:25:19;;;;;;;3.10;0.80;;;14.60;58.70;;;;;;4128830;28;20061;-63
2023/03/27 09:28:29;;;;;;;2.80;0.65;;;14.60;57.90;;;;;;4141173;28;20053;-63
2023/03/27 09:31:25;;;;;;;1.25;0.50;;;14.60;58.70;;;;;;4148405;28;20080;-63
2023/03/27 09:34:10;;;;;;;2.95;0.65;;;14.70;58.40;;;;;;4144941;28;20049;-62
2023/03/27 09:36:52;;;;;;;2.72;0.77;;;14.60;58.40;;;;;;4145992;28;20135;-63
2023/03/27 09:39:38;;;;;;;1.85;0.60;;;14.70;57.20;;;;;;4142569;28;21059;-64
2023/03/27 09:42:33;;;;;;;2.58;1.02;;;14.60;58.10;;;;;;4141999;28;20127;-68
2023/03/27 09:45:15;;;;;;;3.83;0.60;;;14.60;57.30;;;;;;4145492;28;20057;-68
2023/03/27 09:48:16;;;;;;;3.97;0.60;;;14.70;57.50;;;;;;4144801;28;20049;-62
2023/03/27 09:50:57;;;;;;;1.58;0.45;;;14.70;58.20;;;;;;4125843;28;20061;-61
2023/03/27 09:53:59;;;;;;;2.55;0.40;;;14.60;58.20;;;;;;4141893;28;20456;-62
2023/03/27 09:56:47;;;;;;;1.48;0.60;;;14.60;57.30;;;;;;4148649;28;20048;-62
2023/03/27 09:59:31;;;;;;;2.95;0.93;;;14.60;57.30;;;;;;4136036;28;20044;-62
2023/03/27 10:02:23;;;;;;;3.25;0.95;;;14.60;58.20;;;;;;4149460;28;20061;-62
2023/03/27 10:05:10;;;;;;;2.70;0.60;;;14.60;58.90;;;;;;4145272;28;20060;-61
2023/03/27 10:07:52;;;;;;;4.65;0.95;;;14.60;59.20;;;;;;4143957;28;20076;-62
2023/03/27 10:10:56;;;;;;;2.88;1.27;;;14.60;58.80;;;;;;4147495;28;20196;-62
2023/03/27 10:14:09;;;;;;;3.72;0.77;;;14.50;57.00;;;;;;4148305;28;20060;-62
2023/03/27 10:16:51;;;;;;;1.85;0.60;;;14.50;56.80;;;;;;4151024;28;20199;-62
2023/03/27 10:19:37;;;;;;;1.98;0.50;;;14.50;56.80;;;;;;4146282;28;20056;-62
2023/03/27 10:22:27;;;;;;;2.50;0.63;;;14.50;55.90;;;;;;4150333;28;20128;-62
2023/03/27 10:25:18;;;;;;;2.55;0.63;;;14.50;56.80;;;;;;4146663;28;20065;-61
2023/03/27 10:28:21;;;;;;;4.45;0.85;;;14.50;57.20;;;;;;4145594;28;20492;-62
2023/03/27 10:31:50;;;;;;;3.28;0.60;;;14.50;57.70;;;;;;4147083;28;20065;-62
2023/03/27 10:34:54;;;;;;;3.30;0.60;;;14.50;58.70;;;;;;4151565;28;20060;-61
2023/03/27 10:38:02;;;;;;;3.55;0.80;;;14.50;58.30;;;;;;4150755;28;20092;-61
2023/03/27 10:41:06;;;;;;;4.28;1.13;;;14.50;57.00;;;;;;4146551;28;20056;-61
2023/03/27 10:43:56;;;;;;;1.98;0.63;;;14.50;57.20;;;;;;4146158;28;20056;-62
2023/03/27 10:46:40;;;;;;;2.47;0.90;;;14.50;57.10;;;;;;4146876;28;20056;-61
2023/03/27 10:49:31;;;;;;;2.83;0.73;;;14.60;56.40;;;;;;4147796;28;20048;-62
2023/03/27 10:52:21;;;;;;;2.42;0.52;;;14.50;56.70;;;;;;4144585;28;20056;-61
2023/03/27 10:55:40;;;;;;;3.38;0.80;;;14.50;55.00;;;;;;4151207;28;20085;-61
2023/03/27 10:58:31;;;;;;;2.75;0.70;;;14.60;56.70;;;;;;4151154;28;20057;-60
2023/03/27 11:01:17;;;;;;;2.92;1.05;;;14.60;58.70;;;;;;4136773;28;20531;-60
2023/03/27 11:04:07;;;;;;;1.98;0.90;;;14.50;59.40;;;;;;4146620;28;20124;-61
2023/03/27 11:06:59;;;;;;;5.03;1.00;;;14.50;58.90;;;;;;4138664;28;20061;-61
2023/03/27 11:09:56;;;;;;;3.17;0.88;;;14.40;58.70;;;;;;4138793;28;20174;-61
2023/03/27 11:12:50;;;;;;;3.05;0.90;;;14.50;58.10;;;;;;4137747;28;20193;-67
2023/03/27 11:15:39;;;;;;;2.30;0.77;;;14.50;58.30;;;;;;4140941;28;20128;-68
2023/03/27 11:18:41;;;;;;;7.85;0.90;;;14.50;58.90;;;;;;4138008;28;20176;-66
2023/03/27 11:21:32;;;;;;;;;;;14.50;57.80;;;;;;4130334;28;20201;-63
2023/03/27 11:24:28;;;;;;;2.83;1.00;;;14.50;56.60;;;;;;4125353;28;20019;-66
2023/03/27 11:27:26;;;;;;;3.70;0.80;;;14.50;58.00;;;;;;4139429;28;20217;-66
2023/03/27 11:30:34;;;;;;;5.60;1.20;;;14.50;57.40;;;;;;4112251;28;20066;-66
2023/03/27 11:33:40;;;;;;;3.38;0.90;;;14.50;57.20;;;;;;4156687;28;20065;-61
2023/03/27 11:36:38;;;;;;;2.63;0.90;;;14.50;57.50;;;;;;4144453;28;20084;-67
2023/03/27 11:39:36;;;;;;;6.13;1.35;;;14.40;59.10;;;;;;4140437;28;20448;-66
2023/03/27 11:42:21;;;;;;;4.90;1.40;;;14.40;60.50;;;;;;4141745;28;20095;-67
2023/03/27 11:45:08;;;;;;;6.35;1.33;;;14.40;59.80;;;;;;4125650;28;20249;-66
2023/03/27 11:48:24;;;;;;;3.88;0.88;;;14.40;60.40;;;;;;4126183;28;20120;-66
2023/03/27 11:51:12;;;;;;;4.70;1.17;;;14.40;61.10;;;;;;4144507;28;20048;-66
2023/03/27 11:54:14;;;;;;;8.75;1.65;;;14.40;61.10;;;;;;4144514;28;20052;-66
2023/03/27 11:57:03;;;;;;;2.10;0.95;;;14.40;60.90;;;;;;4144258;28;20172;-66
2023/03/27 12:00:26;;;;;;;2.42;0.80;;;14.40;62.50;;;;;;4142464;28;20401;-66
2023/03/27 12:03:24;;;;;;;11.15;1.02;;;14.40;61.10;;;;;;4133364;28;20517;-66
2023/03/27 12:06:16;;;;;;;1.67;0.63;;;14.40;59.80;;;;;;4110373;28;20072;-68
2023/03/27 12:09:09;;;;;;;3.83;0.88;;;14.40;59.00;;;;;;4125198;28;20056;-67
2023/03/27 12:12:27;;;;;;;2.65;1.10;;;14.40;59.20;;;;;;4137149;28;20376;-67
2023/03/27 12:15:22;;;;;;;5.18;1.00;;;14.40;57.90;;;;;;4137402;28;20608;-67
2023/03/27 12:18:17;;;;;;;4.00;0.95;;;14.40;57.50;;;;;;4141879;28;20106;-67
2023/03/27 12:21:13;;;;;;;5.07;1.13;;;14.40;55.80;;;;;;4123911;28;20189;-67
2023/03/27 12:24:26;;;;;;;3.42;1.20;;;14.40;58.20;;;;;;4129322;28;20413;-66
2023/03/27 12:27:46;;;;;;;4.65;1.00;;;14.40;57.70;;;;;;4131408;28;20420;-67
2023/03/27 12:31:04;;;;;;;5.28;1.23;;;14.40;58.20;;;;;;4124054;28;20076;-66
2023/03/27 12:33:54;;;;;;;4.68;1.42;;;14.40;57.00;;;;;;4141174;28;20057;-68
2023/03/27 12:36:37;;;;;;;5.00;1.42;;;14.40;57.70;;;;;;4141685;28;20061;-67
2023/03/27 12:39:21;;;;;;;4.40;1.08;;;14.30;57.80;;;;;;4147000;28;20052;-68
2023/03/27 12:42:13;;;;;;;6.35;1.40;;;14.30;58.00;;;;;;4143293;28;20079;-68
2023/03/27 12:45:13;;;;;;;1.88;0.93;;;14.30;58.50;;;;;;4146084;28;20069;-65
2023/03/27 12:48:16;;;;;;;3.17;0.93;;;14.30;57.70;;;;;;4142657;28;20504;-67
2023/03/27 12:50:59;;;;;;;4.93;1.10;;;14.30;56.20;;;;;;4151115;28;20056;-68
2023/03/27 12:53:54;;;;;;;3.03;0.90;;;14.30;57.50;;;;;;4142696;28;20570;-68
2023/03/27 12:56:37;;;;;;;3.30;0.98;;;14.30;56.60;;;;;;4141844;28;20068;-68
2023/03/27 12:59:21;;;;;;;;;;;14.20;57.70;;;;;;4143752;28;20148;-67
2023/03/27 13:02:35;;;;;;;4.22;1.10;;;14.30;57.00;;;;;;4150590;28;19932;-61
2023/03/27 13:05:46;;;;;;;3.67;1.00;;;14.20;58.30;;;;;;4144007;28;20135;-61
2023/03/27 13:08:53;;;;;;;3.55;1.27;;;14.20;56.40;;;;;;4147222;28;20145;-67
2023/03/27 13:12:04;;;;;;;4.88;1.13;;;14.20;57.10;;;;;;4154572;28;20507;-67
2023/03/27 13:15:10;;;;;;;5.95;1.02;;;14.20;56.50;;;;;;4125799;28;20468;-67
2023/03/27 13:18:21;;;;;;;2.70;1.10;;;14.20;56.20;;;;;;4133881;28;20041;-68
2023/03/27 13:21:17;;;;;;;7.25;1.45;;;14.20;57.00;;;;;;4142976;28;20052;-68
2023/03/27 13:24:14;;;;;;;2.72;0.70;;;14.20;58.00;;;;;;4124967;28;20185;-67
2023/03/27 13:27:08;;;;;;;5.00;1.20;;;14.20;58.50;;;;;;4141318;28;20060;-67
2023/03/27 13:29:53;;;;;;;6.28;0.90;;;14.20;58.30;;;;;;4129176;28;20065;-68
2023/03/27 13:32:42;;;;;;;6.25;1.20;;;14.20;58.80;;;;;;4131369;28;20088;-67
2023/03/27 13:35:40;;;;;;;3.70;0.98;;;14.20;58.10;;;;;;4155343;28;20053;-67
2023/03/27 13:38:44;;;;;;;5.47;1.30;;;14.20;57.70;;;;;;4148551;28;20056;-68
2023/03/27 13:42:01;;;;;;;4.40;1.17;;;14.20;57.10;;;;;;4152518;28;20053;-68
2023/03/27 13:44:58;;;;;;;6.68;1.48;;;14.20;57.10;;;;;;4148575;28;20077;-69
2023/03/27 13:48:32;;;;;;;2.92;0.98;;;14.20;58.60;;;;;;4144935;28;20150;-69
2023/03/27 13:51:23;;;;;;;3.47;1.13;;;14.20;58.70;;;;;;4126518;28;20057;-70
2023/03/27 13:54:36;;;;;;;5.50;1.35;;;14.20;56.90;;;;;;4151692;28;20052;-69
2023/03/27 13:57:45;;;;;;;4.47;1.30;;;14.10;57.00;;;;;;4126759;28;20185;-68
2023/03/27 14:00:46;;;;;;;5.38;1.27;;;14.10;57.30;;;;;;4128112;28;20505;-60
2023/03/27 14:03:59;;;;;;;4.40;0.63;;;14.10;57.70;;;;;;4126829;28;20116;-66
2023/03/27 14:07:15;;;;;;;5.18;1.00;;;14.10;56.70;;;;;;4126749;28;20301;-71
2023/03/27 14:10:20;;;;;;;1.92;0.90;;;14.10;57.60;;;;;;4148975;28;20045;-68
2023/03/27 14:13:29;;;;;;;4.63;0.80;;;14.10;57.10;;;;;;4127315;28;20057;-69
2023/03/27 14:16:38;;;;;;;1.13;0.52;;;14.10;56.50;;;;;;4143806;28;20065;-70
2023/03/27 14:20:10;;;;;;;4.13;0.73;;;14.10;56.70;;;;;;4142490;28;20200;-73
2023/03/27 14:22:55;;;;;;;3.88;1.70;;;14.10;56.60;;;;;;4113963;28;20403;-71
2023/03/27 14:25:47;;;;;;;3.92;2.50;;;14.00;56.30;;;;;;4131934;28;20048;-71
2023/03/27 14:28:50;;;;;;;3.35;1.20;;;14.10;57.00;;;;;;4142660;28;20451;-70
2023/03/27 14:31:42;;;;;;;5.50;0.90;;;14.10;56.60;;;;;;4151837;28;20521;-69
2023/03/27 14:34:33;;;;;;;3.72;0.95;;;14.10;58.40;;;;;;4143164;28;20053;-71
2023/03/27 14:37:40;;;;;;;7.45;1.27;;;14.10;58.20;;;;;;4142968;28;20049;-63
2023/03/27 14:40:46;;;;;;;4.53;0.93;;;14.10;59.40;;;;;;4142637;28;20052;-71
2023/03/27 14:43:30;;;;;;;4.90;1.75;;;14.10;58.70;;;;;;4135841;28;20116;-62
2023/03/27 14:46:14;;;;;;;2.20;0.85;;;14.10;59.30;;;;;;4143772;28;20475;-65
2023/03/27 14:48:59;;;;;;;4.85;1.25;;;14.10;58.70;;;;;;4142803;28;20045;-60
2023/03/27 14:51:41;;;;;;;5.22;1.58;;;14.10;59.10;;;;;;4139561;28;20115;-66